Time;durP1;ratioP1;P1;durP2;ratioP2;P2;SDS_P1;SDS_P2;PMS_P1;PMS_P2;Temp;Humidity;BMP_temperature;BMP_pressure;BME280_temperature;BME280_humidity;BME280_pressure;Samples;Min_cycle;Max_cycle;Signal;HPM_P1;HPM_P2
2023/01/18 00:02:26;;;;;;;8.00;7.20;;;-0.70;99.90;-1.50;98068;;;;541856;262;24174;-75
2023/01/18 00:04:54;;;;;;;8.27;7.10;;;-0.70;99.90;-1.50;98071;;;;541734;262;24182;-75
2023/01/18 00:07:23;;;;;;;8.47;7.57;;;-0.80;99.90;-1.50;98067;;;;541712;262;25203;-79
2023/01/18 00:09:51;;;;;;;10.03;7.20;;;-0.80;99.90;-1.50;98057;;;;541763;262;24178;-76
2023/01/18 00:12:19;;;;;;;9.63;7.40;;;-0.80;99.90;-1.50;98059;;;;541579;262;24194;-75
2023/01/18 00:14:47;;;;;;;9.13;7.97;;;-0.80;99.90;-1.60;98055;;;;538832;262;24162;-75
2023/01/18 00:17:15;;;;;;;7.97;7.17;;;-0.80;99.90;-1.70;98051;;;;541778;262;24199;-75
2023/01/18 00:19:42;;;;;;;11.12;9.50;;;-0.90;99.90;-1.70;98052;;;;537346;262;36013;-75
2023/01/18 00:22:10;;;;;;;11.00;8.03;;;-0.90;99.90;-1.70;98050;;;;542051;262;25222;-75
2023/01/18 00:24:38;;;;;;;11.32;9.38;;;-0.90;99.90;-1.70;98045;;;;537328;262;35872;-75
2023/01/18 00:27:06;;;;;;;11.07;8.13;;;-0.90;99.90;-1.70;98037;;;;542067;262;24173;-74
2023/01/18 00:29:34;;;;;;;11.37;8.23;;;-0.90;99.90;-1.70;98044;;;;539015;262;24256;-74
2023/01/18 00:32:05;;;;;;;11.07;8.90;;;-0.90;99.90;-1.70;98057;;;;542922;262;24190;-74
2023/01/18 00:34:33;;;;;;;10.30;8.87;;;-0.90;99.90;-1.70;98061;;;;542845;258;24186;-75
2023/01/18 00:36:58;;;;;;;13.13;9.90;;;-0.90;99.90;-1.70;98064;;;;542641;262;24153;-75
2023/01/18 00:39:26;;;;;;;11.90;9.10;;;-0.90;99.90;-1.70;98064;;;;542802;262;24146;-75
2023/01/18 00:44:40;;;;;;;11.67;10.47;;;-1.00;99.90;-1.80;98044;;;;547334;262;24179;-75
2023/01/18 00:47:08;;;;;;;12.63;9.80;;;-1.00;99.90;-1.80;98044;;;;542639;262;24201;-75
2023/01/18 00:49:36;;;;;;;15.93;11.13;;;-1.00;99.90;-1.80;98035;;;;542492;262;24154;-76
2023/01/18 00:52:04;;;;;;;13.10;10.87;;;-1.10;99.90;-1.80;98051;;;;542015;262;24227;-75
2023/01/18 00:54:32;;;;;;;13.93;10.70;;;-1.10;99.90;-1.80;98057;;;;541156;262;24177;-76
2023/01/18 00:57:00;;;;;;;11.63;9.90;;;-1.10;99.90;-1.80;98077;;;;542152;258;24156;-74
2023/01/18 00:59:28;;;;;;;14.37;10.40;;;-1.10;99.90;-1.80;98084;;;;542354;262;24173;-75
2023/01/18 01:01:56;;;;;;;13.30;9.50;;;-1.10;99.90;-1.80;98095;;;;542344;262;24192;-76
2023/01/18 01:07:14;;;;;;;13.50;10.13;;;-1.10;99.90;-2.00;98100;;;;546995;262;24183;-75
2023/01/18 01:09:38;;;;;;;12.53;9.33;;;-1.20;99.90;-2.00;98108;;;;541825;262;24179;-75
2023/01/18 01:26:09;;;;;;;10.13;9.07;;;-1.20;99.90;-1.90;98114;;;;546722;262;24178;-78
2023/01/18 01:28:42;;;;;;;13.93;9.67;;;-1.20;99.90;-2.00;98121;;;;537643;262;24275;-78
2023/01/18 01:31:10;;;;;;;11.63;10.03;;;-1.20;99.90;-2.10;98121;;;;542609;262;24239;-77
2023/01/18 01:33:41;;;;;;;10.23;9.13;;;-1.30;99.90;-2.10;98123;;;;539217;262;24174;-77
2023/01/18 01:36:06;;;;;;;12.20;10.10;;;-1.30;99.90;-2.10;98128;;;;539263;262;24211;-75
2023/01/18 01:38:34;;;;;;;12.17;9.50;;;-1.30;99.90;-2.00;98130;;;;539544;262;24184;-77
2023/01/18 01:41:04;;;;;;;13.20;10.77;;;-1.30;99.90;-1.90;98131;;;;539186;262;24173;-79
2023/01/18 01:43:51;;;;;;;14.53;11.83;;;-1.20;99.90;-1.90;98128;;;;539785;262;24215;-77
2023/01/18 01:46:46;;;;;;;15.13;11.30;;;-1.20;99.90;-1.90;98131;;;;545213;257;24160;-78
2023/01/18 01:49:23;;;;;;;13.53;11.43;;;-1.10;99.90;-1.90;98134;;;;539618;262;24169;-77
2023/01/18 01:51:53;;;;;;;12.97;11.63;;;-1.10;99.90;-1.90;98125;;;;542604;262;25283;-79
2023/01/18 01:54:27;;;;;;;12.77;11.30;;;-1.10;99.90;-1.90;98133;;;;542669;262;24175;-77
2023/01/18 01:56:56;;;;;;;15.57;12.07;;;-1.10;99.90;-1.90;98134;;;;542682;258;24173;-77
2023/01/18 01:59:24;;;;;;;12.90;11.10;;;-1.20;99.90;-1.90;98133;;;;539418;262;24230;-77
2023/01/18 02:01:53;;;;;;;17.47;12.07;;;-1.10;99.90;-1.90;98135;;;;542677;262;24189;-76
2023/01/18 02:04:21;;;;;;;14.57;10.97;;;-1.10;99.90;-1.90;98144;;;;542417;262;24171;-75
2023/01/18 02:06:49;;;;;;;14.33;10.53;;;-1.10;99.90;-1.80;98139;;;;542138;262;24158;-77
2023/01/18 02:09:21;;;;;;;15.90;11.77;;;-1.10;99.90;-1.90;98138;;;;542238;262;24208;-74
2023/01/18 02:11:45;;;;;;;16.17;11.43;;;-1.10;99.90;-1.90;98135;;;;546718;262;24173;-76
2023/01/18 02:14:16;;;;;;;12.53;10.90;;;-1.10;99.90;-2.00;98140;;;;542482;262;24160;-75
2023/01/18 02:16:56;;;;;;;12.37;11.07;;;-1.20;99.90;-2.00;98152;;;;541967;262;24161;-75
2023/01/18 02:19:41;;;;;;;14.13;11.33;;;-1.20;99.90;-2.10;98153;;;;539162;262;24215;-75
2023/01/18 02:22:31;;;;;;;13.07;9.87;;;-1.30;99.90;-2.10;98144;;;;538475;262;24173;-76
2023/01/18 02:25:28;;;;;;;12.37;10.47;;;-1.30;99.90;-2.20;98143;;;;538990;262;24176;-74
2023/01/18 02:28:21;;;;;;;12.57;11.17;;;-1.50;99.90;-2.20;98137;;;;538452;262;24232;-74
2023/01/18 02:31:02;;;;;;;13.30;11.23;;;-1.50;99.90;-2.30;98148;;;;539094;262;24195;-78
2023/01/18 02:33:33;;;;;;;12.70;11.40;;;-1.60;99.90;-2.40;98135;;;;541859;262;24211;-76
2023/01/18 02:36:01;;;;;;;16.17;13.13;;;-1.60;99.90;-2.40;98134;;;;540958;262;24221;-79
2023/01/18 02:38:32;;;;;;;17.57;13.07;;;-1.70;99.90;-2.50;98134;;;;542056;262;24184;-78
2023/01/18 02:41:04;;;;;;;17.27;12.77;;;-1.70;99.90;-2.50;98136;;;;538094;262;24243;-79
2023/01/18 02:46:37;;;;;;;17.23;12.53;;;-1.70;99.90;-2.50;98139;;;;546836;261;24173;-76
2023/01/18 02:49:09;;;;;;;17.40;12.13;;;-1.80;99.90;-2.50;98138;;;;538989;262;24202;-78
2023/01/18 02:51:40;;;;;;;16.47;12.73;;;-1.70;99.90;-2.50;98141;;;;539033;262;24173;-76
2023/01/18 02:54:05;;;;;;;15.23;12.87;;;-1.80;99.90;-2.60;98136;;;;539259;260;24162;-78
2023/01/18 02:56:42;;;;;;;14.80;12.40;;;-1.80;99.90;-2.60;98138;;;;539962;260;25217;-76
2023/01/18 02:59:22;;;;;;;18.80;15.93;;;-1.80;99.90;-2.70;98144;;;;537745;262;35790;-78
2023/01/18 03:01:55;;;;;;;18.73;14.13;;;-1.90;99.90;-2.70;98152;;;;541969;262;24173;-79
2023/01/18 03:04:26;;;;;;;18.80;15.13;;;-1.90;99.90;-2.70;98153;;;;541483;262;24173;-77
2023/01/18 03:06:56;;;;;;;18.63;14.27;;;-1.90;99.90;-2.70;98156;;;;546909;260;24240;-78
2023/01/18 03:09:24;;;;;;;17.10;14.30;;;-1.90;99.90;-2.70;98154;;;;539130;262;24154;-77
2023/01/18 03:12:08;;;;;;;18.60;13.93;;;-1.90;99.90;-2.70;98157;;;;542096;262;24184;-79
2023/01/18 03:14:52;;;;;;;14.30;11.30;;;-1.90;99.90;-2.70;98168;;;;539213;262;24199;-80
2023/01/18 03:17:38;;;;;;;13.60;11.53;;;-1.90;99.90;-2.60;98170;;;;548344;257;24189;-78
2023/01/18 03:20:11;;;;;;;12.10;10.10;;;-1.80;99.90;-2.50;98166;;;;538907;262;25223;-79
2023/01/18 03:25:28;;;;;;;13.20;11.27;;;-1.70;99.90;-2.50;98151;;;;547062;261;24207;-78
2023/01/18 03:33:43;;;;;;;13.13;10.90;;;-1.60;99.90;-2.40;98171;;;;546840;261;24215;-76
2023/01/18 03:36:23;;;;;;;17.05;13.25;;;-1.60;99.90;-2.40;98167;;;;534378;262;35715;-77
2023/01/18 03:39:06;;;;;;;13.07;11.67;;;-1.60;99.90;-2.40;98159;;;;546356;259;24215;-78
2023/01/18 03:41:38;;;;;;;14.03;11.73;;;-1.50;99.90;-2.30;98163;;;;541883;262;25217;-76
2023/01/18 03:44:06;;;;;;;14.37;11.33;;;-1.50;99.90;-2.40;98159;;;;539005;262;24168;-76
2023/01/18 03:46:34;;;;;;;13.87;11.23;;;-1.60;99.90;-2.40;98157;;;;538653;262;24166;-77
2023/01/18 03:49:02;;;;;;;17.83;12.07;;;-1.60;99.90;-2.40;98151;;;;539187;262;24179;-79
2023/01/18 03:51:46;;;;;;;14.57;11.53;;;-1.50;99.90;-2.30;98145;;;;546904;262;24163;-76
2023/01/18 03:54:34;;;;;;;14.00;11.40;;;-1.50;99.90;-2.30;98149;;;;541716;262;24210;-76
2023/01/18 03:57:02;;;;;;;14.90;11.33;;;-1.50;99.90;-2.30;98147;;;;539068;258;24162;-78
2023/01/18 03:59:30;;;;;;;17.17;13.03;;;-1.50;99.90;-2.40;98135;;;;538696;262;24165;-78
2023/01/18 04:01:58;;;;;;;15.60;11.67;;;-1.50;99.90;-2.40;98134;;;;538676;262;24198;-76
2023/01/18 04:04:26;;;;;;;14.53;11.43;;;-1.50;99.90;-2.30;98130;;;;538920;262;24145;-77
2023/01/18 04:06:54;;;;;;;15.53;12.63;;;-1.50;99.90;-2.30;98133;;;;541735;262;24174;-78
2023/01/18 04:09:22;;;;;;;21.10;12.63;;;-1.50;99.90;-2.30;98145;;;;542846;262;24184;-75
2023/01/18 04:11:52;;;;;;;16.70;13.50;;;-1.50;99.90;-2.20;98142;;;;542698;262;24181;-76
2023/01/18 04:14:17;;;;;;;20.30;14.60;;;-1.50;99.90;-2.20;98144;;;;542240;262;24154;-78
2023/01/18 04:16:46;;;;;;;24.60;17.07;;;-1.40;99.90;-2.20;98127;;;;542299;262;24181;-77
2023/01/18 04:19:14;;;;;;;20.03;14.83;;;-1.40;99.90;-2.20;98117;;;;542199;262;24205;-79
2023/01/18 04:21:42;;;;;;;19.77;16.13;;;-1.40;99.90;-2.20;98121;;;;542342;262;24160;-80
2023/01/18 04:24:11;;;;;;;21.73;14.87;;;-1.40;99.90;-2.20;98128;;;;542539;262;24185;-77
2023/01/18 04:26:39;;;;;;;20.47;15.03;;;-1.30;99.90;-2.10;98138;;;;542317;262;24182;-79
2023/01/18 04:29:07;;;;;;;20.50;14.97;;;-1.30;99.90;-2.10;98135;;;;542346;262;24193;-79
2023/01/18 04:31:59;;;;;;;21.12;16.08;;;-1.30;99.90;-2.00;98135;;;;537603;262;35856;-80
2023/01/18 04:34:27;;;;;;;18.13;13.60;;;-1.20;99.90;-2.00;98137;;;;541308;262;24146;-76
2023/01/18 04:36:59;;;;;;;17.43;13.37;;;-1.10;99.90;-1.90;98125;;;;542331;262;24222;-77
2023/01/18 04:39:28;;;;;;;15.83;12.43;;;-1.10;99.90;-1.90;98135;;;;539324;262;24202;-74
2023/01/18 04:41:52;;;;;;;16.93;12.67;;;-1.10;99.90;-1.90;98137;;;;538810;262;24270;-80
2023/01/18 04:44:20;;;;;;;15.93;13.37;;;-1.10;99.90;-1.80;98144;;;;542159;262;24203;-79
2023/01/18 04:46:48;;;;;;;19.23;12.47;;;-1.10;99.90;-1.80;98149;;;;541991;262;24173;-78
2023/01/18 04:49:16;;;;;;;15.87;12.63;;;-1.00;99.90;-1.80;98155;;;;542117;262;24214;-80
2023/01/18 04:51:48;;;;;;;18.63;14.90;;;-1.00;99.90;-1.80;98152;;;;542089;262;25192;-77
2023/01/18 04:54:13;;;;;;;18.00;13.53;;;-1.00;99.90;-1.80;98151;;;;535419;262;24256;-79
2023/01/18 04:56:42;;;;;;;18.10;13.33;;;-1.00;99.90;-1.90;98151;;;;538982;262;25208;-81
2023/01/18 04:59:10;;;;;;;16.33;12.63;;;-1.10;99.90;-1.90;98158;;;;541688;262;24307;-76
2023/01/18 05:01:38;;;;;;;19.07;13.17;;;-1.10;99.90;-1.90;98164;;;;538459;260;24166;-80
2023/01/18 05:04:06;;;;;;;18.20;13.33;;;-1.10;99.90;-1.90;98164;;;;541718;262;24173;-78
2023/01/18 05:06:34;;;;;;;17.40;12.60;;;-1.10;99.90;-1.90;98164;;;;541668;262;24154;-76
2023/01/18 05:09:02;;;;;;;17.93;11.97;;;-1.10;99.90;-1.80;98153;;;;541783;262;24237;-78
2023/01/18 05:11:29;;;;;;;16.27;11.77;;;-1.10;99.90;-1.80;98161;;;;541702;262;24250;-79
2023/01/18 05:13:57;;;;;;;15.50;12.10;;;-1.10;99.90;-1.80;98162;;;;541841;262;24177;-76
2023/01/18 05:16:26;;;;;;;14.47;11.23;;;-1.00;99.90;-1.80;98157;;;;541760;262;24192;-77
2023/01/18 05:18:53;;;;;;;16.40;12.63;;;-1.00;99.90;-1.90;98156;;;;542933;262;24170;-79
2023/01/18 05:21:21;;;;;;;16.87;11.93;;;-1.10;99.90;-1.90;98170;;;;542776;262;25203;-78
2023/01/18 05:23:49;;;;;;;15.63;11.43;;;-1.10;99.90;-1.80;98161;;;;542829;262;24158;-78
2023/01/18 05:26:17;;;;;;;16.60;12.03;;;-1.10;99.90;-1.90;98165;;;;542756;262;24149;-74
2023/01/18 05:28:45;;;;;;;15.95;13.02;;;-1.10;99.90;-1.80;98170;;;;534286;262;35850;-74
2023/01/18 05:31:16;;;;;;;14.07;10.87;;;-1.00;99.90;-1.80;98174;;;;535585;262;24192;-75
2023/01/18 05:33:41;;;;;;;16.67;10.37;;;-1.00;99.90;-1.80;98170;;;;539252;262;24202;-76
2023/01/18 05:36:09;;;;;;;14.40;11.43;;;-1.00;99.90;-1.80;98178;;;;542468;262;24182;-76
2023/01/18 05:38:37;;;;;;;12.27;10.07;;;-1.00;99.90;-1.80;98165;;;;542344;262;24154;-74
2023/01/18 05:41:06;;;;;;;13.70;11.17;;;-1.00;99.90;-1.80;98179;;;;542342;262;24162;-76
2023/01/18 05:43:37;;;;;;;12.97;10.83;;;-1.10;99.90;-1.80;98184;;;;542310;262;24175;-75
2023/01/18 05:46:03;;;;;;;14.03;10.90;;;-1.00;99.90;-1.80;98191;;;;542089;262;24158;-73
2023/01/18 05:48:30;;;;;;;13.90;10.60;;;-1.00;99.90;-1.80;98187;;;;542262;262;24172;-78
2023/01/18 05:50:58;;;;;;;17.40;9.97;;;-1.00;99.90;-1.80;98192;;;;542318;262;24171;-78
2023/01/18 05:53:26;;;;;;;13.97;10.40;;;-1.00;99.90;-1.70;98202;;;;542244;262;24157;-73
2023/01/18 05:55:59;;;;;;;18.57;13.57;;;-1.00;99.90;-1.70;98194;;;;542096;262;24254;-74
2023/01/18 05:58:27;;;;;;;18.13;13.57;;;-0.90;99.90;-1.70;98201;;;;538753;262;24162;-74
2023/01/18 06:00:55;;;;;;;21.77;14.40;;;-0.90;99.90;-1.70;98195;;;;538984;262;24170;-79
2023/01/18 06:03:26;;;;;;;18.87;13.70;;;-0.90;99.90;-1.80;98189;;;;546455;262;24162;-79
2023/01/18 06:05:51;;;;;;;19.60;14.43;;;-1.00;99.90;-1.80;98195;;;;541567;262;24212;-80
2023/01/18 06:08:19;;;;;;;17.30;12.67;;;-1.00;99.90;-1.90;98190;;;;541659;262;24212;-75
2023/01/18 06:10:56;;;;;;;16.27;13.00;;;-1.10;99.90;-1.90;98184;;;;541616;262;24218;-74
2023/01/18 06:13:26;;;;;;;21.45;15.52;;;-1.10;99.90;-2.00;98198;;;;536936;262;35807;-76
2023/01/18 06:15:53;;;;;;;17.70;13.87;;;-1.20;99.90;-2.10;98189;;;;541617;262;24225;-75
2023/01/18 06:18:22;;;;;;;20.93;14.33;;;-1.20;99.90;-2.10;98189;;;;541744;262;24166;-75
2023/01/18 06:20:56;;;;;;;17.50;13.80;;;-1.30;99.90;-2.10;98198;;;;541678;262;24163;-77
2023/01/18 06:23:24;;;;;;;18.30;15.70;;;-1.30;99.90;-2.20;98188;;;;546495;262;24150;-75
2023/01/18 06:25:52;;;;;;;23.07;15.73;;;-1.30;99.90;-2.20;98189;;;;546799;261;24246;-75
2023/01/18 06:28:21;;;;;;;20.80;15.87;;;-1.40;99.90;-2.20;98186;;;;535579;262;24192;-76
2023/01/18 06:30:50;;;;;;;27.03;19.67;;;-1.40;99.90;-2.20;98184;;;;543316;262;24159;-76
2023/01/18 06:33:15;;;;;;;53.10;36.23;;;-1.40;99.90;-2.20;98187;;;;547563;262;24169;-75
2023/01/18 06:35:44;;;;;;;49.50;35.57;;;-1.40;99.90;-2.20;98182;;;;542781;262;25196;-75
2023/01/18 06:38:13;;;;;;;63.03;39.37;;;-1.30;99.90;-2.10;98181;;;;542686;262;24200;-74
2023/01/18 06:40:41;;;;;;;64.80;43.37;;;-1.40;99.90;-2.10;98177;;;;539500;262;24187;-75
2023/01/18 06:43:12;;;;;;;67.57;42.63;;;-1.30;99.90;-2.10;98179;;;;539513;262;24167;-75
2023/01/18 06:45:36;;;;;;;54.53;35.17;;;-1.30;99.90;-2.10;98172;;;;539287;262;24199;-74
2023/01/18 06:48:04;;;;;;;47.33;31.57;;;-1.30;99.90;-2.00;98183;;;;542399;262;25236;-79
2023/01/18 06:50:32;;;;;;;53.00;32.00;;;-1.20;99.90;-2.00;98178;;;;542307;262;24206;-80
2023/01/18 06:53:00;;;;;;;48.57;31.90;;;-1.20;99.90;-1.90;98174;;;;542303;262;24169;-76
2023/01/18 06:55:28;;;;;;;47.00;31.33;;;-1.20;99.90;-1.90;98188;;;;542332;262;24157;-75
2023/01/18 06:57:56;;;;;;;49.97;32.03;;;-1.10;99.90;-1.90;98184;;;;542100;262;24176;-75
2023/01/18 07:00:24;;;;;;;53.63;35.40;;;-1.10;99.90;-1.90;98184;;;;541965;262;24175;-76
2023/01/18 07:02:53;;;;;;;60.93;38.27;;;-1.10;99.90;-1.90;98182;;;;536139;262;24257;-78
2023/01/18 07:05:21;;;;;;;55.87;37.43;;;-1.20;99.90;-1.90;98183;;;;541823;262;24240;-78
2023/01/18 07:07:49;;;;;;;49.33;33.03;;;-1.10;99.90;-1.90;98186;;;;541699;262;25204;-77
2023/01/18 07:10:17;;;;;;;51.20;31.90;;;-1.10;99.90;-1.80;98177;;;;541781;262;24186;-75
2023/01/18 07:12:47;;;;;;;57.03;38.93;;;-1.00;99.90;-1.80;98181;;;;541726;262;24170;-80
2023/01/18 07:15:16;;;;;;;49.80;32.17;;;-1.00;99.90;-1.80;98193;;;;541751;262;24197;-77
2023/01/18 07:17:41;;;;;;;46.93;29.77;;;-1.00;99.90;-1.70;98193;;;;538545;262;24202;-74
2023/01/18 07:20:12;;;;;;;43.87;29.57;;;-0.90;99.90;-1.70;98201;;;;541652;262;25211;-77
2023/01/18 07:22:37;;;;;;;43.87;28.77;;;-0.90;99.90;-1.60;98201;;;;541674;262;24174;-76
2023/01/18 07:25:05;;;;;;;44.63;26.87;;;-0.80;99.90;-1.60;98199;;;;541701;262;24188;-77
2023/01/18 07:27:37;;;;;;;44.63;31.90;;;-0.80;99.90;-1.50;98205;;;;534352;260;35825;-77
2023/01/18 07:30:02;;;;;;;40.00;26.43;;;-0.70;99.90;-1.50;98211;;;;542022;262;24203;-79
2023/01/18 07:32:30;;;;;;;41.17;27.20;;;-0.70;99.90;-1.50;98212;;;;542121;262;24190;-80
2023/01/18 07:34:59;;;;;;;45.07;29.03;;;-0.60;99.90;-1.40;98209;;;;542140;262;24195;-79
2023/01/18 07:37:32;;;;;;;44.80;28.33;;;-0.60;99.90;-1.40;98204;;;;542107;262;24183;-76
2023/01/18 07:39:56;;;;;;;46.07;29.63;;;-0.60;99.90;-1.30;98202;;;;541863;262;24281;-77
2023/01/18 07:42:24;;;;;;;45.93;29.63;;;-0.50;99.90;-1.20;98192;;;;543364;262;24155;-80
2023/01/18 07:44:52;;;;;;;45.53;29.63;;;-0.50;99.90;-1.20;98185;;;;542992;262;24168;-80
2023/01/18 07:47:19;;;;;;;55.47;34.37;;;-0.40;99.90;-1.20;98183;;;;542838;262;24165;-79
2023/01/18 07:49:47;;;;;;;51.63;34.67;;;-0.40;99.90;-1.10;98196;;;;542745;262;24167;-78
2023/01/18 07:52:15;;;;;;;46.63;32.10;;;-0.40;99.90;-1.10;98187;;;;542583;262;25199;-79
2023/01/18 07:54:44;;;;;;;43.57;27.37;;;-0.40;99.90;-1.00;98197;;;;542550;262;24222;-80
2023/01/18 07:57:11;;;;;;;42.20;26.63;;;-0.30;99.90;-1.00;98197;;;;542460;262;24165;-77
2023/01/18 07:59:39;;;;;;;40.17;25.90;;;-0.20;99.90;-0.90;98204;;;;542105;262;24176;-79
2023/01/18 08:02:07;;;;;;;36.67;22.73;;;-0.20;99.90;-0.80;98200;;;;541916;262;24178;-76
2023/01/18 08:04:35;;;;;;;41.80;24.67;;;-0.10;99.90;-0.70;98212;;;;538969;262;24240;-78
2023/01/18 08:07:03;;;;;;;35.60;22.23;;;0.00;99.90;-0.60;98209;;;;541970;262;24197;-80
2023/01/18 08:09:35;;;;;;;32.03;21.77;;;0.10;99.90;-0.50;98211;;;;535699;262;24218;-78
2023/01/18 08:11:59;;;;;;;35.77;20.13;;;0.30;99.90;-0.30;98215;;;;538931;259;24225;-77
2023/01/18 08:14:27;;;;;;;40.43;21.97;;;0.40;99.90;-0.20;98219;;;;539174;262;24183;-78
2023/01/18 08:16:55;;;;;;;31.33;21.07;;;0.60;99.90;-0.10;98206;;;;546808;262;24158;-78
2023/01/18 08:19:24;;;;;;;29.27;18.47;;;0.60;99.90;-0.10;98208;;;;538794;262;24192;-79
2023/01/18 08:21:51;;;;;;;27.83;19.17;;;0.70;99.90;0.00;98198;;;;541822;262;24166;-79
2023/01/18 08:24:19;;;;;;;28.87;17.40;;;0.80;99.90;0.10;98199;;;;538754;262;24224;-77
2023/01/18 08:26:48;;;;;;;28.77;19.00;;;0.90;99.90;0.20;98196;;;;541947;262;24166;-78
2023/01/18 08:29:16;;;;;;;27.87;17.40;;;0.90;99.90;0.20;98193;;;;542088;262;24222;-80
2023/01/18 08:31:44;;;;;;;29.83;16.17;;;1.00;99.90;0.30;98205;;;;542089;262;25254;-76
2023/01/18 08:34:12;;;;;;;32.87;17.77;;;1.00;99.90;0.40;98209;;;;542097;262;25218;-77
2023/01/18 08:36:40;;;;;;;26.20;13.13;;;1.20;99.90;0.50;98209;;;;538949;262;24158;-75
2023/01/18 08:39:08;;;;;;;28.83;12.77;;;1.10;99.90;0.50;98216;;;;541966;262;24250;-77
2023/01/18 08:41:36;;;;;;;18.17;11.57;;;1.20;99.90;0.60;98213;;;;542065;262;24233;-79
2023/01/18 08:44:04;;;;;;;20.77;12.10;;;1.30;99.90;0.70;98212;;;;541091;262;24207;-76
2023/01/18 08:46:32;;;;;;;22.23;12.87;;;1.40;99.90;0.80;98211;;;;539027;262;24176;-77
2023/01/18 08:49:00;;;;;;;22.97;11.70;;;1.40;99.90;0.80;98205;;;;542102;262;24192;-75
2023/01/18 08:51:28;;;;;;;17.23;10.33;;;1.50;99.90;0.90;98225;;;;542035;262;24232;-75
2023/01/18 08:53:56;;;;;;;24.57;12.43;;;1.50;99.90;0.90;98215;;;;543309;262;24185;-74
2023/01/18 08:56:26;;;;;;;24.57;11.67;;;1.60;99.90;1.00;98219;;;;542875;262;24156;-75
2023/01/18 08:58:52;;;;;;;24.30;12.80;;;1.70;99.90;1.00;98224;;;;542239;258;24177;-75
2023/01/18 09:01:21;;;;;;;25.97;12.30;;;1.70;99.90;1.10;98214;;;;542764;262;24169;-75
2023/01/18 09:03:49;;;;;;;23.37;13.00;;;1.70;99.90;1.10;98226;;;;542183;262;24250;-75
2023/01/18 09:06:16;;;;;;;22.80;12.07;;;1.80;99.90;1.20;98222;;;;542094;262;24259;-75
2023/01/18 09:08:44;;;;;;;22.07;11.77;;;1.90;99.90;1.30;98216;;;;547250;262;24280;-74
2023/01/18 09:11:12;;;;;;;22.43;12.17;;;1.90;99.90;1.40;98212;;;;539265;262;24176;-75
2023/01/18 09:13:40;;;;;;;24.80;12.07;;;2.00;99.90;1.40;98207;;;;539256;262;24209;-76
2023/01/18 09:16:08;;;;;;;32.13;13.47;;;2.20;99.90;1.50;98218;;;;542202;262;24242;-75
2023/01/18 09:18:36;;;;;;;17.50;10.83;;;2.10;99.90;1.50;98215;;;;539179;262;24192;-74
2023/01/18 09:21:07;;;;;;;22.83;10.73;;;2.20;99.90;1.60;98222;;;;542301;262;24191;-75
2023/01/18 09:23:35;;;;;;;20.50;11.03;;;2.20;99.90;1.60;98220;;;;539208;262;24208;-76
2023/01/18 09:26:03;;;;;;;14.97;9.70;;;2.20;99.90;1.60;98213;;;;542336;262;24205;-74
2023/01/18 09:28:31;;;;;;;17.70;9.70;;;2.30;99.90;1.70;98216;;;;542002;262;24173;-74
2023/01/18 09:31:02;;;;;;;16.20;9.63;;;2.30;99.90;1.80;98216;;;;541836;262;24186;-74
2023/01/18 09:33:30;;;;;;;17.97;8.63;;;2.40;99.90;2.00;98224;;;;541691;262;24189;-74
2023/01/18 09:35:57;;;;;;;15.97;8.53;;;2.60;99.90;2.10;98214;;;;538650;262;24156;-76
2023/01/18 09:38:26;;;;;;;11.77;8.20;;;2.90;99.90;2.20;98230;;;;538702;262;24224;-74
2023/01/18 09:40:54;;;;;;;13.03;6.23;;;2.90;99.90;2.40;98230;;;;541692;262;24177;-78
2023/01/18 09:43:41;;;;;;;10.40;6.60;;;3.00;99.90;2.50;98234;;;;541800;262;24180;-79
2023/01/18 09:46:13;;;;;;;9.47;5.50;;;3.10;99.90;2.50;98228;;;;541637;262;25211;-78
2023/01/18 09:48:41;;;;;;;8.43;4.93;;;3.20;99.90;2.70;98222;;;;538628;262;24177;-78
2023/01/18 09:51:09;;;;;;;7.07;5.93;;;3.30;99.90;2.80;98223;;;;541631;262;24189;-77
2023/01/18 09:54:04;;;;;;;14.43;7.57;;;3.40;99.90;2.90;98231;;;;538690;259;24193;-79
2023/01/18 09:56:38;;;;;;;11.30;8.10;;;3.60;99.90;2.90;98220;;;;541176;260;24202;-77
2023/01/18 09:59:21;;;;;;;9.97;6.43;;;3.60;99.90;2.90;98225;;;;538719;262;24239;-76
2023/01/18 10:01:49;;;;;;;7.93;6.63;;;3.60;99.90;3.00;98230;;;;546244;259;24241;-75
2023/01/18 10:04:29;;;;;;;9.70;6.57;;;3.60;99.90;3.00;98227;;;;537309;261;24178;-74
2023/01/18 10:07:00;;;;;;;21.40;13.55;;;3.70;99.90;3.10;98222;;;;534858;262;35841;-75
2023/01/18 10:09:36;;;;;;;14.03;10.03;;;3.70;99.90;3.20;98220;;;;542461;262;25217;-76
2023/01/18 10:12:13;;;;;;;13.50;9.27;;;3.80;99.90;3.30;98208;;;;539541;262;24196;-76
2023/01/18 10:15:06;;;;;;;17.63;11.10;;;4.10;99.90;3.40;98206;;;;539479;262;24167;-77
2023/01/18 10:17:34;;;;;;;14.50;10.60;;;4.00;99.90;3.50;98211;;;;542231;262;24188;-77
2023/01/18 10:20:02;;;;;;;15.53;9.77;;;4.20;99.90;3.60;98199;;;;539371;262;24186;-76
2023/01/18 10:22:36;;;;;;;11.67;9.47;;;4.40;99.90;3.70;98193;;;;527913;262;24185;-77
2023/01/18 10:25:06;;;;;;;13.87;9.47;;;4.30;99.90;3.80;98191;;;;542048;262;24179;-76
2023/01/18 10:27:56;;;;;;;17.00;9.07;;;4.50;99.90;3.80;98188;;;;538514;262;24177;-75
2023/01/18 10:31:00;;;;;;;13.07;8.40;;;4.50;99.90;3.80;98185;;;;541873;262;24181;-74
2023/01/18 10:33:25;;;;;;;14.40;7.93;;;4.50;99.90;3.80;98182;;;;539292;262;24195;-76
2023/01/18 10:36:11;;;;;;;11.80;8.17;;;4.50;99.90;3.80;98183;;;;538864;262;24224;-76
2023/01/18 10:38:39;;;;;;;12.20;7.63;;;4.40;99.90;3.80;98190;;;;541748;262;24179;-76
2023/01/18 10:41:07;;;;;;;14.27;8.73;;;4.40;99.90;3.80;98186;;;;540617;262;24286;-76
2023/01/18 10:43:35;;;;;;;16.90;7.87;;;4.40;99.90;3.80;98189;;;;538474;262;24204;-76
2023/01/18 10:46:03;;;;;;;14.57;9.30;;;4.40;99.90;3.80;98184;;;;538632;262;24199;-75
2023/01/18 10:48:34;;;;;;;14.83;8.40;;;4.40;99.90;3.80;98179;;;;539023;262;24244;-76
2023/01/18 10:51:02;;;;;;;17.63;9.63;;;4.40;99.90;3.80;98185;;;;540252;262;24207;-73
2023/01/18 10:53:34;;;;;;;10.53;7.27;;;4.40;99.90;3.80;98183;;;;541419;262;24197;-77
2023/01/18 10:56:11;;;;;;;15.80;9.60;;;4.30;99.90;3.70;98174;;;;545805;262;24190;-74
2023/01/18 10:58:51;;;;;;;15.20;9.07;;;4.40;99.90;3.80;98175;;;;538333;262;24185;-77
2023/01/18 11:01:28;;;;;;;13.03;8.17;;;4.40;99.90;3.80;98176;;;;538850;262;24271;-75
2023/01/18 11:04:16;;;;;;;19.53;8.57;;;4.50;99.90;3.80;98169;;;;538814;262;24220;-75
2023/01/18 11:06:53;;;;;;;17.33;10.20;;;4.50;99.90;3.90;98162;;;;538683;262;24199;-76
2023/01/18 11:09:40;;;;;;;15.67;8.87;;;4.50;99.90;4.00;98165;;;;540414;262;24171;-76
2023/01/18 11:12:40;;;;;;;15.50;8.13;;;4.50;99.90;4.00;98167;;;;538831;262;24303;-75
2023/01/18 11:15:15;;;;;;;18.00;9.73;;;4.60;99.90;4.00;98162;;;;541006;260;24203;-76
2023/01/18 11:17:45;;;;;;;19.60;9.03;;;4.60;99.90;4.00;98157;;;;539727;262;24280;-75
2023/01/18 11:20:34;;;;;;;14.77;7.70;;;4.60;99.90;4.00;98155;;;;539548;262;24199;-75
2023/01/18 11:23:09;;;;;;;14.83;8.30;;;4.60;99.90;4.00;98156;;;;541274;262;24173;-77
2023/01/18 11:25:37;;;;;;;15.30;8.67;;;4.60;99.90;3.90;98157;;;;539181;260;24243;-75
2023/01/18 11:28:06;;;;;;;12.77;9.20;;;4.60;99.90;3.90;98163;;;;538933;262;24176;-75
2023/01/18 11:30:33;;;;;;;15.43;9.10;;;4.50;99.90;3.80;98155;;;;538805;262;24184;-75
2023/01/18 11:33:01;;;;;;;19.77;11.17;;;4.40;99.90;3.70;98157;;;;542033;262;24241;-76
2023/01/18 11:35:38;;;;;;;15.27;9.53;;;4.40;99.90;3.70;98166;;;;539103;262;24187;-78
2023/01/18 11:38:07;;;;;;;19.87;9.87;;;4.30;99.90;3.70;98166;;;;541860;262;24235;-76
2023/01/18 11:40:34;;;;;;;10.90;7.07;;;4.30;99.90;3.70;98163;;;;546458;262;25278;-76
2023/01/18 11:43:21;;;;;;;10.43;7.13;;;4.30;99.90;3.60;98161;;;;542139;262;24167;-75
2023/01/18 11:46:03;;;;;;;11.20;6.73;;;4.20;99.90;3.60;98163;;;;539098;262;24193;-75
2023/01/18 11:48:50;;;;;;;13.27;7.30;;;4.20;99.90;3.50;98156;;;;539088;262;24234;-77
2023/01/18 11:51:35;;;;;;;18.02;11.07;;;4.10;99.90;3.50;98156;;;;541874;262;35885;-77
2023/01/18 11:54:09;;;;;;;12.17;7.53;;;4.10;99.90;3.50;98150;;;;541509;262;24176;-76
2023/01/18 11:56:42;;;;;;;11.87;6.77;;;4.10;99.90;3.60;98161;;;;538860;262;24215;-78
2023/01/18 11:59:31;;;;;;;17.73;7.67;;;4.10;99.90;3.60;98168;;;;538402;262;24177;-76